createdAt,value
2023-09-06T00:00:22.811Z,100488.33
2023-09-06T00:03:24.824Z,100495.50
2023-09-06T00:06:24.747Z,100499.34
2023-09-06T00:09:24.778Z,100503.30
2023-09-06T00:12:24.776Z,100501.34
2023-09-06T00:15:25.780Z,100499.16
2023-09-06T00:18:25.960Z,100491.70
2023-09-06T00:21:26.862Z,100494.23
2023-09-06T00:24:27.873Z,100497.30
2023-09-06T00:27:27.796Z,100494.56
2023-09-06T00:30:27.787Z,100491.94
2023-09-06T00:33:28.836Z,100497.69
2023-09-06T00:36:28.817Z,100496.50
2023-09-06T00:39:28.860Z,100497.39
2023-09-06T00:42:31.876Z,100492.35
2023-09-06T00:45:33.832Z,100489.55
2023-09-06T00:48:41.896Z,100492.11
2023-09-06T00:51:42.825Z,100492.78
2023-09-06T00:54:46.869Z,100493.08
2023-09-06T00:57:47.866Z,100488.52
2023-09-06T01:00:47.966Z,100484.38
2023-09-06T01:03:47.989Z,100484.89
2023-09-06T01:06:50.945Z,100483.66
2023-09-06T01:09:50.919Z,100484.78
2023-09-06T01:12:50.933Z,100483.52
2023-09-06T01:15:53.975Z,100487.27
2023-09-06T01:18:53.982Z,100484.14
2023-09-06T01:22:05.992Z,100481.96
2023-09-06T01:25:06.971Z,100483.79
2023-09-06T01:28:06.943Z,100487.48
2023-09-06T01:31:08.005Z,100486.37
2023-09-06T01:34:08.004Z,100486.23
2023-09-06T01:37:07.953Z,100487.61
2023-09-06T01:40:08.000Z,100490.30
2023-09-06T01:43:07.995Z,100491.88
2023-09-06T01:46:08.028Z,100494.27
2023-09-06T01:49:08.006Z,100488.80
2023-09-06T01:52:09.038Z,100490.73
2023-09-06T01:55:08.969Z,100495.70
2023-09-06T01:58:11.044Z,100495.23
2023-09-06T02:01:15.080Z,100496.24
2023-09-06T02:04:15.015Z,100499.39
2023-09-06T02:07:15.055Z,100495.19
2023-09-06T02:10:18.035Z,100495.46
2023-09-06T02:13:18.016Z,100491.20
2023-09-06T02:16:19.116Z,100487.33
2023-09-06T02:19:19.078Z,100490.33
2023-09-06T02:22:19.073Z,100494.33
2023-09-06T02:25:24.081Z,100495.09
2023-09-06T02:28:25.064Z,100491.00
2023-09-06T02:31:25.137Z,100488.13
2023-09-06T02:34:25.077Z,100486.20
2023-09-06T02:37:25.076Z,100487.67
2023-09-06T02:40:25.065Z,100490.58
2023-09-06T02:43:25.122Z,100491.13
2023-09-06T02:46:25.123Z,100496.41
2023-09-06T02:49:25.090Z,100493.34
2023-09-06T02:52:43.099Z,100492.65
2023-09-06T02:55:44.078Z,100493.02
2023-09-06T02:58:44.350Z,100490.17
2023-09-06T03:01:45.130Z,100494.70
2023-09-06T03:04:48.125Z,100495.75
2023-09-06T03:07:50.108Z,100500.05
2023-09-06T03:10:56.130Z,100502.61
2023-09-06T03:14:02.122Z,100499.89
2023-09-06T03:17:02.145Z,100507.35
2023-09-06T03:20:07.144Z,100505.55
2023-09-06T03:23:07.149Z,100504.88
2023-09-06T03:26:08.144Z,100507.88
2023-09-06T03:29:08.167Z,100509.12
2023-09-06T03:32:08.190Z,100515.95
2023-09-06T03:35:08.190Z,100518.46
2023-09-06T03:38:09.290Z,100518.54
2023-09-06T03:41:09.253Z,100515.77
2023-09-06T03:44:09.239Z,100519.62
2023-09-06T03:47:12.300Z,100520.16
2023-09-06T03:50:12.203Z,100515.41
2023-09-06T03:53:12.248Z,100520.35
2023-09-06T03:56:12.261Z,100519.61
2023-09-06T03:59:15.214Z,100522.02
2023-09-06T04:02:20.376Z,100524.10
2023-09-06T04:05:21.250Z,100526.77
2023-09-06T04:08:27.541Z,100527.84
2023-09-06T04:11:28.279Z,100525.81
2023-09-06T04:14:29.290Z,100525.77
2023-09-06T04:17:29.291Z,100522.02
2023-09-06T04:20:30.281Z,100524.70
2023-09-06T04:23:31.271Z,100524.58
2023-09-06T04:26:32.283Z,100523.08
2023-09-06T04:29:32.335Z,100522.42
2023-09-06T04:32:32.307Z,100528.91
2023-09-06T04:35:32.330Z,100527.94
2023-09-06T04:38:34.436Z,100529.77
2023-09-06T04:41:38.325Z,100528.50
2023-09-06T04:44:38.311Z,100524.05
2023-09-06T04:47:39.426Z,100525.36
2023-09-06T04:50:40.396Z,100526.77
2023-09-06T04:53:41.380Z,100526.95
2023-09-06T04:56:49.389Z,100529.38
2023-09-06T04:59:50.411Z,100532.71
2023-09-06T05:02:50.439Z,100530.65
2023-09-06T05:05:50.537Z,100535.70
2023-09-06T05:08:51.396Z,100539.14
2023-09-06T05:11:52.392Z,100541.95
2023-09-06T05:14:52.414Z,100536.98
2023-09-06T05:17:54.470Z,100544.08
2023-09-06T05:20:54.401Z,100547.56
2023-09-06T05:23:54.420Z,100551.59
2023-09-06T05:26:54.441Z,100548.64
2023-09-06T05:29:54.448Z,100551.55
2023-09-06T05:32:54.483Z,100557.08
2023-09-06T05:35:54.433Z,100559.55
2023-09-06T05:38:54.505Z,100560.24
2023-09-06T05:41:54.449Z,100559.44
2023-09-06T05:44:54.479Z,100562.86
2023-09-06T05:47:54.570Z,100562.90
2023-09-06T05:50:54.453Z,100562.70
2023-09-06T05:53:54.504Z,100565.56
2023-09-06T05:56:54.476Z,100565.66
2023-09-06T05:59:54.500Z,100567.09
2023-09-06T06:03:01.515Z,100570.03
2023-09-06T06:06:02.527Z,100566.65
2023-09-06T06:09:02.513Z,100568.79
2023-09-06T06:12:02.524Z,100570.58
2023-09-06T06:15:07.534Z,100571.52
2023-09-06T06:18:07.567Z,100570.70
2023-09-06T06:21:07.568Z,100570.80
2023-09-06T06:24:07.554Z,100571.41
2023-09-06T06:27:07.705Z,100572.89
2023-09-06T06:30:08.657Z,100569.33
2023-09-06T06:33:09.024Z,100568.73
2023-09-06T06:36:09.553Z,100567.60
2023-09-06T06:39:09.581Z,100563.73
2023-09-06T06:42:09.575Z,100563.55
2023-09-06T06:45:14.264Z,100560.52
2023-09-06T06:48:15.663Z,100560.92
2023-09-06T06:51:15.594Z,100554.30
2023-09-06T06:54:22.607Z,100552.08
2023-09-06T06:57:22.617Z,100553.50
2023-09-06T07:00:24.613Z,100550.48
2023-09-06T07:03:24.745Z,100549.61
2023-09-06T07:06:24.651Z,100548.77
2023-09-06T07:09:24.611Z,100543.31
2023-09-06T07:12:24.664Z,100539.49
2023-09-06T07:15:24.704Z,100539.00
2023-09-06T07:18:24.689Z,100536.01
2023-09-06T07:21:25.686Z,100542.17
2023-09-06T07:24:25.753Z,100545.19
2023-09-06T07:27:25.668Z,100540.52
2023-09-06T07:30:25.711Z,100541.71
2023-09-06T07:33:25.703Z,100544.57
2023-09-06T07:36:25.725Z,100540.80
2023-09-06T07:39:25.698Z,100539.91
2023-09-06T07:42:25.788Z,100537.06
2023-09-06T07:45:25.710Z,100533.31
2023-09-06T07:48:25.928Z,100524.21
2023-09-06T07:51:26.009Z,100529.95
2023-09-06T07:54:25.730Z,100529.19
2023-09-06T07:57:26.756Z,100524.29
2023-09-06T08:00:27.741Z,100524.59
2023-09-06T08:03:27.848Z,100520.31
2023-09-06T08:06:28.853Z,100521.64
2023-09-06T08:09:28.863Z,100521.16
2023-09-06T08:12:30.769Z,100516.91
2023-09-06T08:15:30.858Z,100515.06
2023-09-06T08:18:24.053Z,100513.18
2023-09-06T08:21:27.903Z,100512.06
2023-09-06T08:24:27.881Z,100508.61
2023-09-06T08:27:27.794Z,100511.40
2023-09-06T08:30:30.071Z,100508.73
2023-09-06T08:33:29.893Z,100501.33
2023-09-06T08:36:29.854Z,100502.24
2023-09-06T08:39:30.896Z,100500.09
2023-09-06T08:42:40.846Z,100494.49
2023-09-06T08:45:41.836Z,100495.59
2023-09-06T08:48:42.016Z,100492.41
2023-09-06T08:51:43.988Z,100495.00
2023-09-06T08:54:43.928Z,100490.64
2023-09-06T08:57:45.908Z,100489.30
2023-09-06T09:00:46.018Z,100485.77
2023-09-06T09:03:50.072Z,100490.48
2023-09-06T09:06:57.959Z,100485.58
2023-09-06T09:10:20.912Z,100486.23
2023-09-06T09:13:24.997Z,100481.41
2023-09-06T09:16:27.056Z,100480.15
2023-09-06T09:19:26.992Z,100478.83
2023-09-06T09:22:28.002Z,100477.06
2023-09-06T09:25:30.990Z,100478.50
2023-09-06T09:28:31.162Z,100477.80
2023-09-06T09:31:32.943Z,100480.40
2023-09-06T09:34:33.018Z,100475.30
2023-09-06T09:37:37.803Z,100476.38
2023-09-06T09:43:42.986Z,100475.23
2023-09-06T09:46:44.135Z,100471.44
2023-09-06T09:49:47.116Z,100469.23
2023-09-06T09:52:48.315Z,100472.98
2023-09-06T09:55:55.015Z,100472.55
2023-09-06T09:58:55.027Z,100475.71
2023-09-06T10:01:58.187Z,100473.81
2023-09-06T10:04:58.172Z,100471.30
2023-09-06T10:07:58.062Z,100473.90
2023-09-06T10:10:58.036Z,100470.66
2023-09-06T10:13:59.143Z,100468.70
2023-09-06T10:17:02.043Z,100474.10
2023-09-06T10:20:03.098Z,100476.46
2023-09-06T10:23:05.102Z,100474.08
2023-09-06T10:26:05.099Z,100475.52
2023-09-06T10:29:12.245Z,100470.77
2023-09-06T10:32:18.112Z,100467.88
2023-09-06T10:35:38.113Z,100470.52
2023-09-06T10:38:38.148Z,100468.75
2023-09-06T10:41:41.132Z,100462.90
2023-09-06T10:44:41.155Z,100462.30
2023-09-06T10:47:41.156Z,100469.02
2023-09-06T10:50:44.203Z,100467.27
2023-09-06T10:53:44.156Z,100462.30
2023-09-06T10:56:47.161Z,100460.16
2023-09-06T10:59:51.168Z,100460.38
2023-09-06T11:02:52.327Z,100459.36
2023-09-06T11:05:55.199Z,100452.16
2023-09-06T11:08:55.200Z,100445.35
2023-09-06T11:11:55.205Z,100453.02
2023-09-06T11:14:58.194Z,100453.01
2023-09-06T11:17:59.262Z,100447.39
2023-09-06T11:21:06.296Z,100443.59
2023-09-06T11:24:07.247Z,100448.40
2023-09-06T11:27:11.248Z,100441.52
2023-09-06T11:30:23.438Z,100439.34
2023-09-06T11:33:23.254Z,100434.92
2023-09-06T11:36:25.260Z,100440.23
2023-09-06T11:39:26.300Z,100437.38
2023-09-06T11:42:30.258Z,100434.11
2023-09-06T11:45:30.275Z,100435.66
2023-09-06T11:48:34.288Z,100434.83
2023-09-06T11:51:36.289Z,100431.65
2023-09-06T11:54:39.288Z,100429.20
2023-09-06T11:57:39.325Z,100422.38
2023-09-06T12:00:51.547Z,100422.06
2023-09-06T12:03:59.363Z,100423.99
2023-09-06T12:06:59.453Z,100423.05
2023-09-06T12:10:01.355Z,100422.34
2023-09-06T12:13:03.381Z,100417.44
2023-09-06T12:16:04.347Z,100416.34
2023-09-06T12:19:04.360Z,100414.98
2023-09-06T12:22:04.487Z,100413.03
2023-09-06T12:25:04.363Z,100407.70
2023-09-06T12:28:04.355Z,100406.70
2023-09-06T12:31:16.477Z,100404.98
2023-09-06T12:34:18.412Z,100402.20
2023-09-06T12:37:18.400Z,100393.06
2023-09-06T12:40:23.438Z,100395.55
2023-09-06T12:43:23.415Z,100395.85
2023-09-06T12:46:25.432Z,100396.02
2023-09-06T12:49:25.443Z,100392.60
2023-09-06T12:52:29.423Z,100388.14
2023-09-06T12:55:29.448Z,100387.00
2023-09-06T12:58:29.726Z,100384.95
2023-09-06T13:01:30.556Z,100380.31
2023-09-06T13:04:32.586Z,100382.19
2023-09-06T13:07:33.478Z,100378.00
2023-09-06T13:10:33.526Z,100377.71
2023-09-06T13:13:33.488Z,100373.41
2023-09-06T13:16:33.536Z,100375.50
2023-09-06T13:19:33.548Z,100378.15
2023-09-06T13:22:33.512Z,100378.77
2023-09-06T13:25:33.642Z,100372.89
2023-09-06T13:28:33.545Z,100367.71
2023-09-06T13:31:33.739Z,100363.63
2023-09-06T13:34:34.571Z,100366.09
2023-09-06T13:37:34.561Z,100363.55
2023-09-06T13:40:34.620Z,100366.11
2023-09-06T13:43:35.576Z,100363.98
2023-09-06T13:46:35.544Z,100361.02
2023-09-06T13:49:35.568Z,100362.06
2023-09-06T13:52:35.584Z,100361.63
2023-09-06T13:55:35.679Z,100357.99
2023-09-06T13:58:38.613Z,100357.36
2023-09-06T14:01:38.702Z,100355.88
2023-09-06T14:04:38.717Z,100352.75
2023-09-06T14:07:38.638Z,100352.46
2023-09-06T14:10:38.623Z,100353.98
2023-09-06T14:13:40.689Z,100352.00
2023-09-06T14:16:40.658Z,100349.48
2023-09-06T14:19:42.755Z,100351.92
2023-09-06T14:22:42.678Z,100349.14
2023-09-06T14:25:42.689Z,100349.75
2023-09-06T14:28:42.664Z,100349.49
2023-09-06T14:31:42.752Z,100347.70
2023-09-06T14:34:43.665Z,100347.48
2023-09-06T14:37:43.684Z,100349.04
2023-09-06T14:40:43.674Z,100346.29
2023-09-06T14:43:43.694Z,100349.17
2023-09-06T14:46:43.750Z,100351.04
2023-09-06T14:49:43.698Z,100348.19
2023-09-06T14:52:43.712Z,100347.89
2023-09-06T14:55:44.733Z,100351.30
2023-09-06T14:58:44.719Z,100350.09
2023-09-06T15:01:45.735Z,100351.02
2023-09-06T15:04:45.711Z,100352.27
2023-09-06T15:07:46.777Z,100357.59
2023-09-06T15:10:46.801Z,100359.04
2023-09-06T15:13:46.800Z,100358.33
2023-09-06T15:16:46.871Z,100360.05
2023-09-06T15:19:46.791Z,100356.23
2023-09-06T15:22:47.752Z,100357.30
2023-09-06T15:25:47.882Z,100352.81
2023-09-06T15:28:47.804Z,100353.88
2023-09-06T15:31:47.810Z,100353.55
2023-09-06T15:34:48.821Z,100354.11
2023-09-06T15:37:48.854Z,100352.92
2023-09-06T15:40:48.821Z,100350.21
2023-09-06T15:43:48.821Z,100352.38
2023-09-06T15:46:49.864Z,100353.95
2023-09-06T15:49:49.817Z,100355.65
2023-09-06T15:52:49.842Z,100356.25
2023-09-06T15:55:49.837Z,100359.64
2023-09-06T15:58:49.859Z,100361.42
2023-09-06T16:01:49.914Z,100360.62
2023-09-06T16:04:49.897Z,100366.89
2023-09-06T16:07:51.935Z,100369.15
2023-09-06T16:10:51.916Z,100369.48
2023-09-06T16:13:52.345Z,100373.99
2023-09-06T16:16:53.042Z,100376.68
2023-09-06T16:19:52.900Z,100377.02
2023-09-06T16:22:53.044Z,100382.58
2023-09-06T16:25:54.936Z,100388.20
2023-09-06T16:28:54.920Z,100390.83
2023-09-06T16:31:54.934Z,100394.98
2023-09-06T16:34:54.962Z,100396.86
2023-09-06T16:37:57.962Z,100402.73
2023-09-06T16:40:57.974Z,100402.85
2023-09-06T16:43:57.971Z,100404.34
2023-09-06T16:46:58.132Z,100405.53
2023-09-06T16:49:58.993Z,100408.70
2023-09-06T16:52:58.981Z,100411.59
2023-09-06T16:55:59.011Z,100412.64
2023-09-06T16:58:59.018Z,100414.36
2023-09-06T17:01:59.021Z,100420.02
2023-09-06T17:05:01.138Z,100417.17
2023-09-06T17:08:01.992Z,100417.82
2023-09-06T17:11:04.039Z,100419.89
2023-09-06T17:14:04.018Z,100416.63
2023-09-06T17:17:04.080Z,100417.83
2023-09-06T17:20:04.046Z,100417.30
2023-09-06T17:23:05.043Z,100418.35
2023-09-06T17:26:05.133Z,100423.45
2023-09-06T17:29:05.085Z,100425.20
2023-09-06T17:32:05.218Z,100426.77
2023-09-06T17:35:05.192Z,100428.45
2023-09-06T17:38:07.097Z,100433.79
2023-09-06T17:41:07.091Z,100431.77
2023-09-06T17:44:07.945Z,100431.54
2023-09-06T17:47:10.093Z,100431.81
2023-09-06T17:50:10.106Z,100434.34
2023-09-06T17:53:16.104Z,100434.94
2023-09-06T17:56:22.126Z,100437.59
2023-09-06T17:59:25.168Z,100437.52
2023-09-06T18:02:26.424Z,100437.73
2023-09-06T18:05:29.558Z,100439.88
2023-09-06T18:08:30.444Z,100434.10
2023-09-06T18:11:31.242Z,100432.39
2023-09-06T18:14:32.198Z,100436.55
2023-09-06T18:17:32.245Z,100436.63
2023-09-06T18:20:32.219Z,100436.79
2023-09-06T18:23:32.223Z,100435.22
2023-09-06T18:26:32.197Z,100433.13
2023-09-06T18:29:32.200Z,100436.16
2023-09-06T18:32:32.205Z,100437.26
2023-09-06T18:35:34.343Z,100441.41
2023-09-06T18:38:35.209Z,100442.82
2023-09-06T18:41:35.700Z,100444.48
2023-09-06T18:44:38.251Z,100444.34
2023-09-06T18:47:38.394Z,100441.38
2023-09-06T18:50:39.245Z,100438.86
2023-09-06T18:53:39.251Z,100442.15
2023-09-06T18:56:41.257Z,100439.23
2023-09-06T18:59:41.339Z,100444.51
2023-09-06T19:02:41.293Z,100447.21
2023-09-06T19:05:43.440Z,100448.13
2023-09-06T19:08:44.360Z,100448.00
2023-09-06T19:11:44.298Z,100447.55
2023-09-06T19:14:44.298Z,100451.40
2023-09-06T19:17:48.368Z,100449.66
2023-09-06T19:20:49.328Z,100447.98
2023-09-06T19:23:49.332Z,100446.36
2023-09-06T19:26:49.361Z,100452.98
2023-09-06T19:29:50.325Z,100455.20
2023-09-06T19:32:52.358Z,100455.99
2023-09-06T19:35:52.353Z,100457.73
2023-09-06T19:38:52.381Z,100463.42
2023-09-06T19:41:52.413Z,100464.80
2023-09-06T19:44:52.354Z,100470.55
2023-09-06T19:47:53.406Z,100465.91
2023-09-06T19:50:53.475Z,100464.51
2023-09-06T19:53:53.392Z,100467.95
2023-09-06T19:56:53.399Z,100471.20
2023-09-06T19:59:53.421Z,100471.92
2023-09-06T20:02:53.575Z,100474.84
2023-09-06T20:05:54.455Z,100476.64
2023-09-06T20:08:54.467Z,100478.69
2023-09-06T20:11:55.433Z,100481.42
2023-09-06T20:14:55.490Z,100481.80
2023-09-06T20:17:55.647Z,100483.50
2023-09-06T20:20:56.503Z,100482.95
2023-09-06T20:23:57.590Z,100483.16
2023-09-06T20:26:57.681Z,100485.03
2023-09-06T20:29:57.502Z,100482.15
2023-09-06T20:32:57.571Z,100482.95
2023-09-06T20:35:57.540Z,100479.74
2023-09-06T20:38:57.551Z,100481.07
2023-09-06T20:41:57.529Z,100479.54
2023-09-06T20:44:57.533Z,100478.60
2023-09-06T20:47:57.512Z,100480.11
2023-09-06T20:50:58.772Z,100481.46
2023-09-06T20:54:00.528Z,100481.67
2023-09-06T20:57:00.534Z,100481.80
2023-09-06T21:00:00.566Z,100482.19
2023-09-06T21:03:00.635Z,100481.11
2023-09-06T21:06:10.560Z,100478.98
2023-09-06T21:09:11.624Z,100479.63
2023-09-06T21:12:11.580Z,100483.33
2023-09-06T21:15:12.558Z,100486.16
2023-09-06T21:18:12.689Z,100475.49
2023-09-06T21:21:12.574Z,100477.05
2023-09-06T21:24:12.614Z,100475.21
2023-09-06T21:27:12.613Z,100482.08
2023-09-06T21:30:13.624Z,100486.50
2023-09-06T21:33:14.688Z,100484.16
2023-09-06T21:36:14.648Z,100487.37
2023-09-06T21:39:14.664Z,100486.58
2023-09-06T21:42:14.722Z,100484.91
2023-09-06T21:45:14.647Z,100486.73
2023-09-06T21:48:14.798Z,100486.84
2023-09-06T21:51:26.658Z,100491.64
2023-09-06T21:54:26.650Z,100487.98
2023-09-06T21:57:26.668Z,100487.16
2023-09-06T22:00:28.663Z,100483.20
2023-09-06T22:03:47.838Z,100479.95
2023-09-06T22:07:05.686Z,100478.89
2023-09-06T22:10:23.798Z,100480.66
2023-09-06T22:13:42.682Z,100487.06
2023-09-06T22:16:42.737Z,100484.03
2023-09-06T22:19:42.747Z,100484.86
2023-09-06T22:22:42.717Z,100481.95
2023-09-06T22:25:42.706Z,100481.25
2023-09-06T22:28:42.749Z,100482.71
2023-09-06T22:31:42.804Z,100479.02
2023-09-06T22:34:43.782Z,100478.19
2023-09-06T22:37:44.769Z,100477.11
2023-09-06T22:40:44.752Z,100479.65
2023-09-06T22:43:44.783Z,100478.14
2023-09-06T22:46:44.827Z,100478.98
2023-09-06T22:49:44.821Z,100476.43
2023-09-06T22:52:44.906Z,100476.95
2023-09-06T22:55:44.802Z,100474.58
2023-09-06T22:58:44.862Z,100472.28
2023-09-06T23:01:44.991Z,100477.14
2023-09-06T23:04:45.861Z,100473.91
2023-09-06T23:07:45.827Z,100473.90
2023-09-06T23:10:46.819Z,100473.04
2023-09-06T23:13:46.852Z,100477.32
2023-09-06T23:16:47.959Z,100478.05
2023-09-06T23:19:53.856Z,100476.44
2023-09-06T23:22:56.861Z,100480.70
2023-09-06T23:25:59.837Z,100480.20
2023-09-06T23:29:00.857Z,100479.66
2023-09-06T23:32:00.942Z,100477.21
2023-09-06T23:35:02.019Z,100476.63
2023-09-06T23:38:05.882Z,100479.08
2023-09-06T23:41:06.904Z,100481.27
2023-09-06T23:44:10.878Z,100478.34
2023-09-06T23:47:12.998Z,100480.33
2023-09-06T23:50:12.900Z,100480.42
2023-09-06T23:53:12.945Z,100481.77
2023-09-06T23:56:17.903Z,100482.77
2023-09-06T23:59:17.943Z,100486.02
